Time;durP1;ratioP1;P1;durP2;ratioP2;P2;SDS_P1;SDS_P2;PMS_P1;PMS_P2;Temp;Humidity;BMP_temperature;BMP_pressure;BME280_temperature;BME280_humidity;BME280_pressure;Samples;Min_cycle;Max_cycle;Signal;HPM_P1;HPM_P2
2021/08/03 00:00:51;;;;;;;0.80;0.70;;;;;;;11.90;100.00;-15286.81;5052810;28;20441;-73
2021/08/03 00:03:27;;;;;;;0.70;0.60;;;;;;;11.88;100.00;-16633.69;5053539;28;20830;-72
2021/08/03 00:06:01;;;;;;;0.70;0.60;;;;;;;11.88;100.00;-17822.09;5054037;28;20449;-72
2021/08/03 00:08:33;;;;;;;1.00;0.90;;;;;;;11.83;100.00;-18835.56;5053872;28;20491;-73
2021/08/03 00:11:03;;;;;;;0.80;0.80;;;;;;;11.84;100.00;-19641.91;5036564;28;20479;-73
2021/08/03 00:13:32;;;;;;;0.80;0.80;;;;;;;11.87;100.00;-20390.59;5052914;28;20429;-72
2021/08/03 00:16:04;;;;;;;0.70;0.60;;;;;;;11.87;100.00;-20927.72;5053960;28;20470;-72
2021/08/03 00:18:32;;;;;;;0.70;0.60;;;;;;;11.89;100.00;-21005.44;5025487;28;20474;-73
2021/08/03 00:21:02;;;;;;;0.80;0.70;;;;;;;11.89;100.00;-21005.44;5016592;28;20447;-72
2021/08/03 00:23:30;;;;;;;0.70;0.70;;;;;;;11.85;100.00;-21004.47;5033825;28;20433;-72
2021/08/03 00:26:16;;;;;;;0.70;0.70;;;;;;;11.85;100.00;-21004.47;5033595;28;20426;-73
2021/08/03 00:28:51;;;;;;;0.80;0.70;;;;;;;11.92;100.00;-21006.25;5033472;28;20480;-72
2021/08/03 00:31:39;;;;;;;0.77;0.70;;;;;;;12.10;100.00;-21011.09;5019546;28;20826;-72
2021/08/03 00:34:07;;;;;;;0.70;0.70;;;;;;;12.21;100.00;-21014.00;5017326;28;20440;-72
2021/08/03 00:36:37;;;;;;;0.80;0.80;;;;;;;12.29;100.00;-21016.19;5034246;28;20430;-72
2021/08/03 00:39:08;;;;;;;0.80;0.70;;;;;;;12.45;100.00;-21020.63;5044874;28;20474;-72
2021/08/03 00:41:40;;;;;;;0.70;0.70;;;;;;;12.55;100.00;-21023.22;5052461;28;20441;-73
2021/08/03 00:44:07;;;;;;;0.80;0.80;;;;;;;12.64;100.00;-21025.72;5033215;28;20401;-72
2021/08/03 00:46:39;;;;;;;0.70;0.70;;;;;;;12.73;100.00;-21028.06;5032125;28;20475;-72
2021/08/03 00:49:06;;;;;;;0.70;0.70;;;;;;;12.80;100.00;-21030.13;5033269;28;20412;-72
2021/08/03 00:51:54;;;;;;;0.70;0.70;;;;;;;12.76;100.00;-21028.88;5033438;28;20416;-72
2021/08/03 00:54:24;;;;;;;0.70;0.70;;;;;;;12.76;100.00;-21028.88;5032483;28;20456;-72
2021/08/03 00:56:52;;;;;;;0.70;0.60;;;;;;;12.79;100.00;-21029.72;5016279;28;20444;-72
2021/08/03 00:59:19;;;;;;;0.80;0.70;;;;;;;12.86;100.00;-21031.66;5032138;28;20466;-72
2021/08/03 01:01:50;;;;;;;0.70;0.70;;;;;;;12.87;100.00;-21031.94;5036680;28;20537;-72
2021/08/03 01:04:19;;;;;;;0.70;0.70;;;;;;;12.92;100.00;-21033.31;5032786;28;20443;-72
2021/08/03 01:06:57;;;;;;;0.80;0.70;;;;;;;12.99;100.00;-21035.22;5032149;28;20819;-72
2021/08/03 01:09:30;;;;;;;0.70;0.70;;;;;;;13.05;100.00;-21036.88;5044720;28;20504;-72
2021/08/03 01:12:07;;;;;;;0.97;0.97;;;;;;;13.13;100.00;-21038.81;5018427;28;20458;-72
2021/08/03 01:14:41;;;;;;;0.70;0.60;;;;;;;13.20;100.00;-21040.88;5051688;28;20471;-72
2021/08/03 01:17:19;;;;;;;0.80;0.73;;;;;;;13.17;100.00;-21040.06;5036543;28;20431;-72
2021/08/03 01:19:54;;;;;;;0.77;0.73;;;;;;;13.23;100.00;-21041.56;5035431;28;20464;-72
2021/08/03 01:22:57;;;;;;;0.70;0.70;;;;;;;13.52;100.00;-21049.44;5052383;28;20447;-72
2021/08/03 01:25:35;;;;;;;0.70;0.70;;;;;;;13.53;100.00;-21049.84;5034645;28;20442;-72
2021/08/03 01:28:16;;;;;;;0.70;0.70;;;;;;;13.48;100.00;-21048.47;5052117;28;20440;-72
2021/08/03 01:30:49;;;;;;;0.70;0.70;;;;;;;13.42;100.00;-21046.81;5052081;28;20427;-72
2021/08/03 01:33:22;;;;;;;0.70;0.70;;;;;;;13.41;100.00;-21046.41;5051751;28;20420;-72
2021/08/03 01:35:54;;;;;;;0.70;0.60;;;;;;;13.41;100.00;-21046.53;5036004;28;20480;-73
2021/08/03 01:38:23;;;;;;;0.70;0.70;;;;;;;13.43;100.00;-21046.97;5052879;28;20522;-72
2021/08/03 01:40:58;;;;;;;0.80;0.70;;;;;;;13.45;100.00;-21047.66;5051854;28;20947;-72
2021/08/03 01:43:29;;;;;;;0.70;0.60;;;;;;;13.60;100.00;-21051.50;5036231;28;20443;-73
2021/08/03 01:45:58;;;;;;;0.70;0.60;;;;;;;13.67;100.00;-21053.44;5033048;28;20417;-72
2021/08/03 01:48:28;;;;;;;0.70;0.70;;;;;;;13.71;100.00;-21054.53;5033181;28;20432;-72
2021/08/03 01:50:56;;;;;;;0.70;0.70;;;;;;;13.74;100.00;-21055.38;5038646;28;21077;-72
2021/08/03 01:53:28;;;;;;;0.70;0.60;;;;;;;13.74;100.00;-21055.50;5047977;28;20560;-72
2021/08/03 01:56:00;;;;;;;0.70;0.70;;;;;;;13.85;100.00;-21058.25;5051726;28;20451;-72
2021/08/03 01:58:31;;;;;;;0.70;0.60;;;;;;;13.94;100.00;-21060.88;5051010;28;20565;-72
2021/08/03 02:01:10;;;;;;;0.93;0.93;;;;;;;14.07;100.00;-21064.19;5051807;28;20427;-72
2021/08/03 02:04:03;;;;;;;0.70;0.60;;;;;;;13.81;100.00;-21057.16;5051179;28;20432;-72
2021/08/03 02:06:37;;;;;;;0.80;0.80;;;;;;;13.86;100.00;-21058.66;5035948;28;20435;-72
2021/08/03 02:09:09;;;;;;;1.30;1.20;;;;;;;13.83;100.00;-21057.84;5035423;28;20956;-73
2021/08/03 02:11:37;;;;;;;0.70;0.60;;;;;;;13.80;100.00;-21056.88;5049377;28;20506;-72
2021/08/03 02:14:09;;;;;;;0.80;0.80;;;;;;;13.79;100.00;-21056.75;5035107;28;20791;-72
2021/08/03 02:16:58;;;;;;;0.80;0.80;;;;;;;13.82;100.00;-21057.56;5051251;28;20440;-72
2021/08/03 02:19:42;;;;;;;0.70;0.70;;;;;;;13.84;100.00;-21058.13;5051634;28;20471;-73
2021/08/03 02:22:12;;;;;;;1.23;1.13;;;;;;;13.86;100.00;-21058.66;5034787;28;20444;-73
2021/08/03 02:24:54;;;;;;;0.70;0.70;;;;;;;13.89;100.00;-21059.38;5037058;28;20451;-72
2021/08/03 02:27:25;;;;;;;0.70;0.70;;;;;;;13.89;100.00;-21059.50;5050785;28;20453;-72
2021/08/03 02:29:57;;;;;;;0.70;0.67;;;;;;;13.90;100.00;-21059.78;5034931;28;20436;-72
2021/08/03 02:32:33;;;;;;;0.70;0.60;;;;;;;13.89;100.00;-21059.50;5034428;28;20531;-72
2021/08/03 02:35:07;;;;;;;0.70;0.70;;;;;;;13.95;100.00;-21061.00;5051568;28;21023;-72
2021/08/03 02:37:43;;;;;;;0.70;0.60;;;;;;;13.98;100.00;-21061.84;5053422;28;20474;-72
2021/08/03 02:40:12;;;;;;;0.70;0.70;;;;;;;13.92;100.00;-21060.31;5038267;28;20479;-72
2021/08/03 02:42:53;;;;;;;0.70;0.60;;;;;;;13.89;100.00;-21059.50;5040155;28;20446;-73
2021/08/03 02:45:24;;;;;;;0.70;0.70;;;;;;;13.93;100.00;-21060.59;5055795;28;20898;-72
2021/08/03 02:47:59;;;;;;;0.80;0.70;;;;;;;13.96;100.00;-21061.44;5035605;28;20452;-72
2021/08/03 02:50:28;;;;;;;0.70;0.70;;;;;;;14.02;100.00;-21063.06;5034744;28;20433;-73
2021/08/03 02:53:04;;;;;;;0.80;0.70;;;;;;;14.09;100.00;-21064.72;5035499;28;20525;-72
2021/08/03 02:55:38;;;;;;;0.70;0.60;;;;;;;14.07;100.00;-21064.19;5037724;28;20495;-72
2021/08/03 02:58:13;;;;;;;0.70;0.70;;;;;;;13.99;100.00;-21062.25;5034958;28;20913;-72
2021/08/03 03:00:46;;;;;;;0.70;0.70;;;;;;;13.98;100.00;-21061.84;5034252;28;20473;-72
2021/08/03 03:03:21;;;;;;;0.70;0.70;;;;;;;13.95;100.00;-21061.00;5053657;28;20479;-73
2021/08/03 03:05:59;;;;;;;0.80;0.80;;;;;;;14.01;100.00;-21062.66;5027153;28;20921;-72
2021/08/03 03:08:30;;;;;;;0.80;0.80;;;;;;;14.02;100.00;-21063.06;5018100;28;20467;-72
2021/08/03 03:11:04;;;;;;;0.80;0.73;;;;;;;14.02;100.00;-21062.94;5035085;28;20449;-72
2021/08/03 03:13:39;;;;;;;0.80;0.70;;;;;;;14.02;100.00;-21062.94;5018358;28;20512;-73
2021/08/03 03:16:12;;;;;;;0.70;0.70;;;;;;;14.03;100.00;-21063.22;5017873;28;20431;-73
2021/08/03 03:18:43;;;;;;;0.70;0.60;;;;;;;14.09;100.00;-20891.59;5002288;28;20543;-72
2021/08/03 03:21:17;;;;;;;0.70;0.70;;;;;;;14.15;100.00;-20726.97;5017864;28;20940;-73
2021/08/03 03:23:49;;;;;;;0.80;0.70;;;;;;;14.10;100.00;-20564.44;5034723;28;20487;-72
2021/08/03 03:26:23;;;;;;;0.70;0.70;;;;;;;14.15;100.00;-20349.13;5017936;28;20959;-72
2021/08/03 03:28:56;;;;;;;0.80;0.80;;;;;;;14.21;100.00;-20103.91;5018962;28;20448;-73
2021/08/03 03:31:30;;;;;;;0.70;0.70;;;;;;;14.23;100.00;-19857.50;5039439;28;20478;-73
2021/08/03 03:34:03;;;;;;;0.70;0.70;;;;;;;14.18;100.00;-19684.75;5050658;28;20778;-73
2021/08/03 03:36:35;;;;;;;0.70;0.70;;;;;;;14.16;100.00;-19437.28;5034644;28;20450;-73
2021/08/03 03:39:08;;;;;;;0.70;0.70;;;;;;;14.15;100.00;-19157.44;5054295;28;20473;-72
2021/08/03 03:41:44;;;;;;;0.70;0.70;;;;;;;14.31;100.00;-18785.59;5053440;28;20447;-72
2021/08/03 03:44:14;;;;;;;0.70;0.60;;;;;;;14.22;100.00;-18566.78;5019970;28;20546;-72
2021/08/03 03:46:48;;;;;;;0.70;0.60;;;;;;;14.23;100.00;-18249.25;5046100;28;20439;-72
2021/08/03 03:49:20;;;;;;;0.70;0.70;;;;;;;14.26;100.00;-17927.19;5042715;28;20471;-72
2021/08/03 03:51:49;;;;;;;0.70;0.70;;;;;;;14.29;100.00;-17627.66;5018339;28;20448;-72
2021/08/03 03:54:26;;;;;;;0.70;0.70;;;;;;;14.32;100.00;-17292.88;5033537;28;20477;-72
2021/08/03 03:56:58;;;;;;;0.70;0.60;;;;;;;14.33;100.00;-17025.72;5033689;28;20505;-72
2021/08/03 03:59:30;;;;;;;0.80;0.70;;;;;;;14.38;100.00;-16572.75;5002077;28;20526;-72
2021/08/03 04:02:05;;;;;;;0.77;0.70;;;;;;;14.44;100.00;-16253.47;5033090;28;20465;-72
2021/08/03 04:04:35;;;;;;;0.80;0.80;;;;;;;14.38;100.00;-15848.53;5033599;28;20449;-72
2021/08/03 04:07:04;;;;;;;0.80;0.70;;;;;;;14.38;100.00;-15512.88;5025589;28;20452;-73
2021/08/03 04:09:32;;;;;;;0.70;0.60;;;;;;;14.43;100.00;-15203.31;5045114;28;20475;-73
2021/08/03 04:12:06;;;;;;;0.70;0.70;;;;;;;14.50;100.00;-14886.34;5021443;28;20534;-72
2021/08/03 04:14:38;;;;;;;0.70;0.70;;;;;;;14.58;100.00;-14496.25;5053670;28;20449;-72
2021/08/03 04:17:11;;;;;;;0.70;0.60;;;;;;;14.56;100.00;-14129.69;5036219;28;20510;-72
2021/08/03 04:19:43;;;;;;;0.80;0.70;;;;;;;14.55;100.00;-13859.28;5037456;28;20521;-73
2021/08/03 04:22:11;;;;;;;0.80;0.70;;;;;;;14.57;100.00;-13409.94;5052986;28;20796;-73
2021/08/03 04:24:39;;;;;;;0.70;0.70;;;;;;;14.60;100.00;-13195.66;5053208;28;20474;-72
2021/08/03 04:27:06;;;;;;;0.70;0.70;;;;;;;14.64;100.00;-12867.75;5053699;28;20439;-72
2021/08/03 04:29:34;;;;;;;0.70;0.70;;;;;;;14.66;100.00;-12501.63;5052993;28;20810;-72
2021/08/03 04:32:07;;;;;;;0.70;0.70;;;;;;;14.68;100.00;-12127.75;5052915;28;20767;-73
2021/08/03 04:34:36;;;;;;;0.77;0.70;;;;;;;14.80;100.00;-11863.84;5053035;28;20871;-72
2021/08/03 04:37:07;;;;;;;0.70;0.67;;;;;;;14.82;100.00;-11937.34;5052579;28;20463;-72
2021/08/03 04:39:35;;;;;;;0.70;0.60;;;;;;;14.84;100.00;-11818.81;5036034;28;20814;-72
2021/08/03 04:42:04;;;;;;;0.70;0.70;;;;;;;14.84;100.00;-11740.44;5053322;28;20406;-73
2021/08/03 04:44:32;;;;;;;0.70;0.70;;;;;;;14.73;100.00;-11531.81;5053358;28;20412;-72
2021/08/03 04:47:00;;;;;;;0.70;0.60;;;;;;;14.82;100.00;-11467.03;5052878;28;20442;-72
2021/08/03 04:49:28;;;;;;;0.70;0.70;;;;;;;14.90;100.00;-11204.97;5052517;28;20470;-72
2021/08/03 04:51:57;;;;;;;0.70;0.70;;;;;;;14.93;100.00;-11443.03;5036628;28;20788;-72
2021/08/03 04:54:24;;;;;;;0.70;0.70;;;;;;;15.01;100.00;-11454.03;5048971;28;20896;-72
2021/08/03 04:56:55;;;;;;;0.70;0.60;;;;;;;15.02;100.00;-11879.16;5052929;28;20480;-72
2021/08/03 04:59:23;;;;;;;0.70;0.70;;;;;;;15.05;100.00;-12036.31;5042297;28;20458;-72
2021/08/03 05:01:51;;;;;;;0.70;0.60;;;;;;;15.08;100.00;-12426.19;5036066;28;20849;-72
2021/08/03 05:04:19;;;;;;;0.70;0.60;;;;;;;15.12;100.00;-12998.31;5015541;28;20788;-72
2021/08/03 05:06:47;;;;;;;0.70;0.60;;;;;;;15.17;100.00;-14318.91;5017851;28;20465;-72
2021/08/03 05:09:16;;;;;;;0.70;0.70;;;;;;;15.18;100.00;-15724.38;5017210;28;20462;-72
2021/08/03 05:11:43;;;;;;;0.80;0.70;;;;;;;15.20;100.00;-17185.06;5016639;28;20526;-72
2021/08/03 05:14:12;;;;;;;0.70;0.70;;;;;;;15.25;100.00;-18696.41;5032094;28;20428;-73
2021/08/03 05:16:40;;;;;;;0.73;0.60;;;;;;;15.29;100.00;-19939.34;5032007;28;20442;-72
2021/08/03 05:19:10;;;;;;;0.70;0.60;;;;;;;15.24;100.00;-20695.28;5032379;28;20434;-72
2021/08/03 05:21:38;;;;;;;0.80;0.70;;;;;;;15.31;100.00;-21097.75;5015566;28;20441;-72
2021/08/03 05:24:06;;;;;;;0.70;0.70;;;;;;;15.37;100.00;-21099.41;5032541;28;20478;-72
2021/08/03 05:26:36;;;;;;;0.70;0.60;;;;;;;15.43;100.00;-21100.94;5016269;28;20538;-72
2021/08/03 05:29:05;;;;;;;0.70;0.60;;;;;;;15.34;100.00;-21098.59;5037931;28;20440;-72
2021/08/03 05:31:33;;;;;;;0.70;0.63;;;;;;;15.41;100.00;-21100.50;5052571;28;20776;-72
2021/08/03 05:34:03;;;;;;;0.80;0.80;;;;;;;15.41;100.00;-21100.50;5052868;28;20462;-72
2021/08/03 05:36:31;;;;;;;0.73;0.70;;;;;;;15.42;100.00;-21100.78;5035452;28;20447;-72
2021/08/03 05:38:59;;;;;;;0.70;0.70;;;;;;;15.45;100.00;-21101.63;5051292;28;20995;-73
2021/08/03 05:41:27;;;;;;;0.70;0.60;;;;;;;15.56;100.00;-21104.38;5047081;28;20478;-72
2021/08/03 05:43:56;;;;;;;0.70;0.60;;;;;;;15.60;100.00;-21105.47;5043054;28;20468;-72
2021/08/03 05:46:24;;;;;;;0.80;0.70;;;;;;;15.66;100.00;-21107.13;5015674;28;20529;-72
2021/08/03 05:48:52;;;;;;;0.70;0.70;;;;;;;15.60;100.00;-21105.47;5030987;28;20430;-73
2021/08/03 05:51:19;;;;;;;0.70;0.70;;;;;;;15.64;100.00;-21106.69;5016111;28;20487;-72
2021/08/03 05:53:47;;;;;;;0.70;0.70;;;;;;;15.81;100.00;-21111.09;5045912;28;20473;-73
2021/08/03 05:56:14;;;;;;;0.70;0.60;;;;;;;15.87;100.00;-21112.75;5052926;28;20410;-73
2021/08/03 05:58:42;;;;;;;0.80;0.80;;;;;;;15.90;100.00;-21113.72;5052768;28;20452;-72
2021/08/03 06:01:12;;;;;;;0.70;0.60;;;;;;;15.91;100.00;-21114.00;5052798;28;20458;-73
2021/08/03 06:03:41;;;;;;;0.70;0.60;;;;;;;16.04;100.00;-21117.28;5051164;28;20424;-72
2021/08/03 06:06:14;;;;;;;0.77;0.70;;;;;;;16.11;100.00;-21119.22;5051547;28;20833;-72
2021/08/03 06:08:43;;;;;;;0.70;0.60;;;;;;;16.12;100.00;-21119.47;5053413;28;20441;-72
2021/08/03 06:11:16;;;;;;;0.80;0.80;;;;;;;16.08;100.00;-21118.38;5034751;28;20424;-73
2021/08/03 06:13:47;;;;;;;0.70;0.70;;;;;;;16.20;100.00;-21121.69;5051662;28;20838;-72
2021/08/03 06:16:20;;;;;;;0.80;0.70;;;;;;;16.14;100.00;-21120.03;5050933;28;20505;-73
2021/08/03 06:18:49;;;;;;;0.70;0.60;;;;;;;16.21;100.00;-21121.97;5034782;28;20448;-73
2021/08/03 06:21:20;;;;;;;0.80;0.70;;;;;;;16.25;100.00;-21123.06;5052897;28;20463;-73
2021/08/03 06:23:49;;;;;;;0.70;0.70;;;;;;;16.37;100.00;-21126.22;5051647;28;20505;-72
2021/08/03 06:26:20;;;;;;;0.70;0.60;;;;;;;16.24;100.00;-21122.63;5034491;28;20446;-72
2021/08/03 06:28:52;;;;;;;0.70;0.60;;;;;;;16.31;100.00;-21124.56;5051553;28;20411;-72
2021/08/03 06:31:25;;;;;;;0.80;0.80;;;;;;;16.27;100.00;-21123.59;5052239;28;20411;-73
2021/08/03 06:33:54;;;;;;;0.70;0.60;;;;;;;16.40;100.00;-21127.03;5050040;28;20435;-72
2021/08/03 06:36:24;;;;;;;0.73;0.70;;;;;;;16.44;100.00;-21128.13;5045702;28;20445;-72
2021/08/03 06:38:52;;;;;;;0.70;0.60;;;;;;;16.40;100.00;-21127.16;5031586;28;20832;-72
2021/08/03 06:41:28;;;;;;;0.70;0.70;;;;;;;16.58;100.00;-21131.97;5031559;28;21013;-72
2021/08/03 06:44:04;;;;;;;0.70;0.70;;;;;;;16.49;100.00;-21129.38;5030741;28;20413;-72
2021/08/03 06:46:34;;;;;;;0.70;0.70;;;;;;;16.38;100.00;-21126.63;5015277;28;20440;-72
2021/08/03 06:49:06;;;;;;;0.70;0.67;;;;;;;16.20;100.00;-21121.69;5032190;28;20484;-72
2021/08/03 06:51:36;;;;;;;0.80;0.77;;;;;;;16.12;100.00;-21119.47;5031176;28;20482;-72
2021/08/03 06:54:06;;;;;;;0.70;0.70;;;;;;;16.03;100.00;-21117.00;5034462;28;20482;-72
2021/08/03 06:56:38;;;;;;;0.70;0.60;;;;;;;15.97;100.00;-21115.50;5023773;28;20450;-71
2021/08/03 06:59:10;;;;;;;0.73;0.70;;;;;;;15.92;100.00;-21114.25;5032714;28;20444;-72
2021/08/03 07:02:05;;;;;;;0.80;0.80;;;;;;;15.87;100.00;-21112.88;5044379;28;20450;-72
2021/08/03 07:04:45;;;;;;;0.70;0.60;;;;;;;15.98;100.00;-21115.63;5050161;28;20450;-72
2021/08/03 07:07:15;;;;;;;0.70;0.60;;;;;;;16.08;100.00;-21118.53;5052305;28;20410;-72
2021/08/03 07:09:43;;;;;;;0.70;0.70;;;;;;;16.15;100.00;-21120.31;5051096;28;20985;-72
2021/08/03 07:12:13;;;;;;;0.70;0.60;;;;;;;16.30;100.00;-21124.44;5051010;28;20426;-72
2021/08/03 07:14:42;;;;;;;0.73;0.70;;;;;;;16.51;100.00;-21129.91;5051070;28;20913;-72
2021/08/03 07:17:14;;;;;;;0.87;0.87;;;;;;;16.42;100.00;-21127.72;5016774;28;20448;-71
2021/08/03 07:19:43;;;;;;;0.70;0.60;;;;;;;16.56;100.00;-21131.44;5028385;28;20444;-72
2021/08/03 07:22:15;;;;;;;0.70;0.60;;;;;;;16.62;100.00;-21132.94;5046534;28;20783;-72
2021/08/03 07:24:45;;;;;;;0.70;0.70;;;;;;;16.71;100.00;-21135.41;5052624;28;20812;-72
2021/08/03 07:27:14;;;;;;;0.70;0.70;;;;;;;16.72;100.00;-21135.69;5056067;28;20440;-72
2021/08/03 07:29:43;;;;;;;0.73;0.70;;;;;;;16.68;100.00;-21134.59;5055825;28;20428;-72
2021/08/03 07:32:13;;;;;;;1.67;1.37;;;;;;;16.63;100.00;-21133.34;5054074;28;20416;-72
2021/08/03 07:34:42;;;;;;;0.70;0.70;;;;;;;16.60;100.00;-21132.53;5021953;28;20437;-72
2021/08/03 07:37:11;;;;;;;0.70;0.60;;;;;;;16.68;100.00;-21134.59;5031348;28;20450;-72
2021/08/03 07:39:40;;;;;;;0.90;0.90;;;;;;;16.85;100.00;-21139.13;5054247;28;20511;-71
2021/08/03 07:42:08;;;;;;;0.70;0.60;;;;;;;16.76;100.00;-21136.78;5054448;28;20815;-71
2021/08/03 07:44:36;;;;;;;0.70;0.60;;;;;;;16.76;100.00;-21136.78;5038011;28;20485;-72
2021/08/03 07:47:04;;;;;;;0.70;0.60;;;;;;;16.90;100.00;-21140.63;5048966;28;20443;-72
2021/08/03 07:49:33;;;;;;;0.70;0.60;;;;;;;16.93;100.00;-21141.31;5036146;28;20450;-71
2021/08/03 07:52:01;;;;;;;0.80;0.70;;;;;;;17.04;100.00;-21144.19;5054421;28;20479;-71
2021/08/03 07:54:29;;;;;;;0.70;0.60;;;;;;;17.12;100.00;-21146.38;5055423;28;20801;-72
2021/08/03 07:56:56;;;;;;;0.70;0.70;;;;;;;17.38;100.00;-21153.38;5051480;28;20444;-71
2021/08/03 07:59:24;;;;;;;0.70;0.70;;;;;;;17.69;100.00;-21161.75;5049260;28;20469;-71
2021/08/03 08:01:51;;;;;;;0.80;0.70;;;;;;;17.79;100.00;-21164.50;5050301;28;20562;-71
2021/08/03 08:04:19;;;;;;;0.70;0.70;;;;;;;17.95;100.00;-21168.75;5035262;28;20412;-71
2021/08/03 08:06:47;;;;;;;0.80;0.70;;;;;;;18.12;100.00;-21173.25;5034028;28;20956;-71
2021/08/03 08:09:17;;;;;;;0.70;0.60;;;;;;;18.41;100.00;-21180.94;5032988;28;21013;-72
2021/08/03 08:11:50;;;;;;;0.80;0.80;;;;;;;18.66;100.00;-21187.78;5018415;28;20465;-72
2021/08/03 08:14:17;;;;;;;0.70;0.60;;;;;;;18.65;100.00;-21187.38;5035142;28;20490;-71
2021/08/03 08:16:45;;;;;;;0.70;0.60;;;;;;;18.76;100.00;-21190.53;5034231;28;20421;-71
2021/08/03 08:19:13;;;;;;;0.70;0.60;;;;;;;18.90;100.00;-21194.22;5037495;28;20451;-71
2021/08/03 08:21:41;;;;;;;0.80;0.70;;;;;;;18.52;100.00;-21183.94;5037318;28;20546;-71
2021/08/03 08:24:10;;;;;;;0.70;0.70;;;;;;;18.42;100.00;-21181.22;5053496;28;20817;-71
2021/08/03 08:26:38;;;;;;;0.70;0.70;;;;;;;18.36;100.00;-21179.69;5054269;28;20495;-71
2021/08/03 08:29:06;;;;;;;0.70;0.70;;;;;;;18.35;100.00;-21179.56;5053662;28;20409;-71
2021/08/03 08:31:35;;;;;;;0.70;0.70;;;;;;;18.32;100.00;-21178.75;5037100;28;20445;-71
2021/08/03 08:34:03;;;;;;;0.70;0.70;;;;;;;18.29;100.00;-21177.91;5054566;28;20912;-72
2021/08/03 08:36:31;;;;;;;0.70;0.60;;;;;;;18.47;100.00;-21182.56;5051803;28;20502;-71
2021/08/03 08:39:00;;;;;;;0.73;0.63;;;;;;;18.64;100.00;-21187.22;5053315;28;20460;-71
2021/08/03 08:41:30;;;;;;;0.80;0.70;;;;;;;18.73;100.00;-21189.69;5054432;28;20487;-71
2021/08/03 08:44:02;;;;;;;0.70;0.60;;;;;;;18.98;100.00;-21196.25;5054166;28;20956;-72
2021/08/03 08:46:34;;;;;;;0.70;0.70;;;;;;;19.36;100.00;-21206.38;5036433;28;20447;-72
2021/08/03 08:49:05;;;;;;;0.80;0.60;;;;;;;19.21;100.00;-21202.41;5023921;28;20478;-71
2021/08/03 08:51:33;;;;;;;0.70;0.60;;;;;;;18.76;100.00;-21190.38;5044769;28;20441;-71
2021/08/03 08:54:00;;;;;;;0.80;0.70;;;;;;;18.89;100.00;-21193.81;5035555;28;20494;-71
2021/08/03 08:56:30;;;;;;;0.70;0.60;;;;;;;18.66;100.00;-21187.78;5035842;28;20448;-71
2021/08/03 08:58:58;;;;;;;0.80;0.70;;;;;;;18.71;100.00;-21189.00;5052891;28;20923;-71
2021/08/03 09:01:26;;;;;;;0.70;0.60;;;;;;;18.51;100.00;-21183.81;5035678;28;20468;-71
2021/08/03 09:03:55;;;;;;;0.70;0.60;;;;;;;18.75;100.00;-21190.25;5035984;28;21037;-71
2021/08/03 09:06:23;;;;;;;0.70;0.70;;;;;;;18.76;100.00;-21190.53;5054352;28;20908;-71
2021/08/03 09:08:51;;;;;;;0.70;0.70;;;;;;;19.02;100.00;-21197.50;5050472;28;20472;-71
2021/08/03 09:11:21;;;;;;;0.70;0.60;;;;;;;19.34;100.00;-21205.97;5052835;28;20403;-71
2021/08/03 09:13:53;;;;;;;0.70;0.63;;;;;;;19.54;100.00;-21211.31;5052038;28;20456;-71
2021/08/03 09:16:23;;;;;;;0.70;0.60;;;;;;;19.50;100.00;-21210.34;5019567;28;20414;-72
2021/08/03 09:18:53;;;;;;;0.73;0.67;;;;;;;19.38;100.00;-21206.94;5050629;28;20501;-72
2021/08/03 09:21:24;;;;;;;0.70;0.70;;;;;;;19.11;100.00;-21199.81;5052573;28;20521;-71
2021/08/03 09:23:54;;;;;;;0.80;0.70;;;;;;;18.68;100.00;-21188.31;5036186;28;20954;-71
2021/08/03 09:26:41;;;;;;;0.70;0.60;;;;;;;18.58;100.00;-21185.59;5036081;28;20416;-71
2021/08/03 09:29:12;;;;;;;0.77;0.70;;;;;;;19.00;100.00;-21196.81;5052260;28;20417;-72
2021/08/03 09:31:49;;;;;;;0.70;0.60;;;;;;;19.36;100.00;-21206.38;5041588;28;20497;-71
2021/08/03 09:34:18;;;;;;;0.70;0.60;;;;;;;19.54;100.00;-21211.31;5047725;28;20445;-72
2021/08/03 09:36:49;;;;;;;0.70;0.70;;;;;;;19.24;100.00;-21203.25;5052921;28;20383;-71
2021/08/03 09:39:39;;;;;;;0.87;0.83;;;;;;;19.06;100.00;-21198.44;5035800;28;20438;-71
2021/08/03 09:42:10;;;;;;;0.80;0.73;;;;;;;18.82;100.00;-21192.03;5052284;28;20433;-71
2021/08/03 09:44:46;;;;;;;0.80;0.70;;;;;;;18.60;100.00;-21186.13;5052646;28;20504;-72
2021/08/03 09:47:15;;;;;;;0.70;0.60;;;;;;;18.08;100.00;-21172.16;5030860;28;20411;-72
2021/08/03 09:49:48;;;;;;;0.70;0.60;;;;;;;17.74;100.00;-21162.97;5035602;28;20849;-71
2021/08/03 09:52:17;;;;;;;0.70;0.60;;;;;;;17.49;100.00;-21156.25;5051614;28;20922;-71
2021/08/03 09:54:46;;;;;;;0.70;0.60;;;;;;;17.35;100.00;-21152.56;5051163;28;20514;-71
2021/08/03 09:57:24;;;;;;;0.80;0.60;;;;;;;17.25;100.00;-21149.97;5053341;28;20434;-71
2021/08/03 09:59:55;;;;;;;0.70;0.60;;;;;;;17.01;100.00;-21143.50;5052247;28;20423;-71
2021/08/03 10:02:25;;;;;;;0.80;0.60;;;;;;;16.87;100.00;-21139.81;5051575;28;20459;-71
2021/08/03 10:04:56;;;;;;;0.70;0.70;;;;;;;16.82;100.00;-21138.44;5035288;28;20450;-71
2021/08/03 10:07:23;;;;;;;0.87;0.87;;;;;;;16.63;100.00;-21133.22;5048018;28;20455;-71
2021/08/03 10:09:54;;;;;;;0.70;0.60;;;;;;;16.73;100.00;-21135.97;5051444;28;20760;-72
2021/08/03 10:12:23;;;;;;;0.80;0.70;;;;;;;16.74;100.00;-21136.25;5052557;28;20474;-71
2021/08/03 10:14:50;;;;;;;0.70;0.60;;;;;;;16.60;100.00;-21132.38;5051032;28;20486;-71
2021/08/03 10:17:20;;;;;;;0.70;0.70;;;;;;;16.77;100.00;-21136.94;5050648;28;20436;-72
2021/08/03 10:19:49;;;;;;;0.70;0.70;;;;;;;16.87;100.00;-21139.81;5053319;28;20420;-71
2021/08/03 10:22:23;;;;;;;0.70;0.60;;;;;;;16.88;100.00;-21140.06;5035018;28;20475;-72
2021/08/03 10:24:57;;;;;;;0.80;0.70;;;;;;;16.96;100.00;-21142.00;5052513;28;20460;-71
2021/08/03 10:27:42;;;;;;;0.77;0.60;;;;;;;17.06;100.00;-21144.88;5052950;28;20414;-71
2021/08/03 10:30:34;;;;;;;0.70;0.60;;;;;;;17.32;100.00;-21151.88;5051011;28;20418;-71
2021/08/03 10:33:11;;;;;;;0.70;0.70;;;;;;;17.37;100.00;-21153.25;5051265;28;20957;-72
2021/08/03 10:35:42;;;;;;;0.70;0.60;;;;;;;17.47;100.00;-21155.84;5051984;28;20514;-71
2021/08/03 10:38:13;;;;;;;0.80;0.70;;;;;;;17.70;100.00;-21162.03;5051736;28;20535;-71
2021/08/03 10:41:16;;;;;;;0.80;0.73;;;;;;;17.93;100.00;-21168.06;5041939;28;20454;-71
2021/08/03 10:43:49;;;;;;;0.70;0.60;;;;;;;18.10;100.00;-21172.72;5032380;28;20444;-71
2021/08/03 10:46:42;;;;;;;1.23;1.13;;;;;;;18.12;100.00;-21173.13;5041589;28;20848;-71
2021/08/03 10:49:13;;;;;;;0.70;0.70;;;;;;;18.14;100.00;-21173.81;5035890;28;20436;-71
2021/08/03 10:51:42;;;;;;;0.70;0.60;;;;;;;18.25;100.00;-21176.81;5050686;28;20407;-71
2021/08/03 10:54:16;;;;;;;0.70;0.60;;;;;;;18.40;100.00;-21180.66;5051659;28;20455;-71
2021/08/03 10:57:19;;;;;;;0.70;0.70;;;;;;;18.50;100.00;-21183.41;5051735;28;20415;-71
2021/08/03 11:00:05;;;;;;;0.70;0.60;;;;;;;18.56;100.00;-21185.19;5038450;28;20438;-71
2021/08/03 11:02:46;;;;;;;0.70;0.70;;;;;;;19.26;100.00;-21203.78;5053694;28;20995;-71
2021/08/03 11:05:31;;;;;;;0.70;0.60;;;;;;;19.58;100.00;-21212.41;5037871;28;20460;-71
2021/08/03 11:08:38;;;;;;;0.80;0.70;;;;;;;19.87;100.00;-21220.19;5034798;28;20905;-71
2021/08/03 11:11:12;;;;;;;0.70;0.60;;;;;;;19.82;100.00;-21218.69;5034389;28;20436;-71
2021/08/03 11:13:46;;;;;;;0.70;0.60;;;;;;;20.31;100.00;-21231.81;5035171;28;20524;-71
2021/08/03 11:16:53;;;;;;;0.70;0.70;;;;;;;20.59;100.00;-21239.31;5035323;28;20411;-72
2021/08/03 11:19:34;;;;;;;0.70;0.70;;;;;;;20.53;100.00;-21237.81;5055463;28;20521;-71
2021/08/03 11:22:04;;;;;;;0.70;0.70;;;;;;;21.00;100.00;-21250.38;5037530;28;20990;-71
2021/08/03 11:24:37;;;;;;;0.70;0.60;;;;;;;21.13;100.00;-21253.94;5038288;28;20862;-72
2021/08/03 11:27:06;;;;;;;0.70;0.60;;;;;;;21.15;100.00;-21254.47;5046466;28;20425;-71
2021/08/03 11:29:36;;;;;;;0.80;0.80;;;;;;;21.32;100.00;-21258.84;5044585;28;20914;-71
2021/08/03 11:32:05;;;;;;;0.70;0.60;;;;;;;21.17;100.00;-21254.88;5034569;28;20409;-72
2021/08/03 11:34:36;;;;;;;0.70;0.60;;;;;;;22.54;100.00;-21291.41;5036169;28;20413;-71
2021/08/03 11:37:17;;;;;;;0.70;0.60;;;;;;;23.49;100.00;-21316.84;5017787;28;20476;-71
2021/08/03 11:39:49;;;;;;;0.70;0.60;;;;;;;23.84;100.00;-21326.22;5021126;28;20464;-72